sensor_id;sensor_type;location;lat;lon;timestamp;temperature;humidity
32728;DHT22;55292;51.844;19.246;2023-04-23T00:02:32;7.10;99.90
32728;DHT22;55292;51.844;19.246;2023-04-23T00:12:39;7.80;99.90
32728;DHT22;55292;51.844;19.246;2023-04-23T00:17:41;7.70;99.90
32728;DHT22;55292;51.844;19.246;2023-04-23T00:22:45;7.60;99.90
32728;DHT22;55292;51.844;19.246;2023-04-23T00:27:48;7.60;99.90
32728;DHT22;55292;51.844;19.246;2023-04-23T00:37:54;7.50;99.90
32728;DHT22;55292;51.844;19.246;2023-04-23T00:42:59;7.30;99.90
32728;DHT22;55292;51.844;19.246;2023-04-23T00:48:02;7.10;99.90
32728;DHT22;55292;51.844;19.246;2023-04-23T00:53:06;7.20;99.90
32728;DHT22;55292;51.844;19.246;2023-04-23T00:58:08;7.20;99.90
32728;DHT22;55292;51.844;19.246;2023-04-23T01:03:11;7.10;99.90
32728;DHT22;55292;51.844;19.246;2023-04-23T01:08:16;7.10;99.90
32728;DHT22;55292;51.844;19.246;2023-04-23T01:13:20;7.10;99.90
32728;DHT22;55292;51.844;19.246;2023-04-23T01:18:27;6.90;99.90
32728;DHT22;55292;51.844;19.246;2023-04-23T01:23:31;6.80;99.90
32728;DHT22;55292;51.844;19.246;2023-04-23T01:28:34;6.80;99.90
32728;DHT22;55292;51.844;19.246;2023-04-23T01:38:41;6.80;99.90
32728;DHT22;55292;51.844;19.246;2023-04-23T01:43:45;6.80;99.90
32728;DHT22;55292;51.844;19.246;2023-04-23T01:48:47;6.70;99.90
32728;DHT22;55292;51.844;19.246;2023-04-23T01:53:53;6.80;99.90
32728;DHT22;55292;51.844;19.246;2023-04-23T01:58:56;6.70;99.90
32728;DHT22;55292;51.844;19.246;2023-04-23T02:09:03;6.20;99.90
32728;DHT22;55292;51.844;19.246;2023-04-23T02:14:08;5.80;99.90
32728;DHT22;55292;51.844;19.246;2023-04-23T02:19:11;5.90;99.90
32728;DHT22;55292;51.844;19.246;2023-04-23T02:29:20;6.60;99.90
32728;DHT22;55292;51.844;19.246;2023-04-23T02:39:26;6.00;99.90
32728;DHT22;55292;51.844;19.246;2023-04-23T02:44:29;6.30;99.90
32728;DHT22;55292;51.844;19.246;2023-04-23T02:49:32;6.20;99.90
32728;DHT22;55292;51.844;19.246;2023-04-23T02:54:35;5.90;99.90
32728;DHT22;55292;51.844;19.246;2023-04-23T02:59:39;5.70;99.90
32728;DHT22;55292;51.844;19.246;2023-04-23T03:04:42;5.70;99.90
32728;DHT22;55292;51.844;19.246;2023-04-23T03:09:45;6.00;99.90
32728;DHT22;55292;51.844;19.246;2023-04-23T03:14:48;6.00;99.90
32728;DHT22;55292;51.844;19.246;2023-04-23T03:19:51;6.00;99.90
32728;DHT22;55292;51.844;19.246;2023-04-23T03:24:55;6.20;99.90
32728;DHT22;55292;51.844;19.246;2023-04-23T03:30:00;6.30;99.90
32728;DHT22;55292;51.844;19.246;2023-04-23T03:35:04;6.40;99.90
32728;DHT22;55292;51.844;19.246;2023-04-23T03:40:08;6.30;99.90
32728;DHT22;55292;51.844;19.246;2023-04-23T03:45:14;6.30;99.90
32728;DHT22;55292;51.844;19.246;2023-04-23T03:50:19;6.40;99.90
32728;DHT22;55292;51.844;19.246;2023-04-23T03:55:34;7.40;99.90
32728;DHT22;55292;51.844;19.246;2023-04-23T04:00:38;8.20;99.90
32728;DHT22;55292;51.844;19.246;2023-04-23T04:05:43;9.10;99.90
32728;DHT22;55292;51.844;19.246;2023-04-23T04:10:46;9.10;99.90
32728;DHT22;55292;51.844;19.246;2023-04-23T04:15:49;10.20;99.90
32728;DHT22;55292;51.844;19.246;2023-04-23T04:20:52;11.10;99.90
32728;DHT22;55292;51.844;19.246;2023-04-23T04:25:56;11.90;99.90
32728;DHT22;55292;51.844;19.246;2023-04-23T04:31:01;12.70;99.90
32728;DHT22;55292;51.844;19.246;2023-04-23T04:36:04;13.70;99.90
32728;DHT22;55292;51.844;19.246;2023-04-23T04:41:07;14.40;98.80
32728;DHT22;55292;51.844;19.246;2023-04-23T04:46:10;15.10;94.20
32728;DHT22;55292;51.844;19.246;2023-04-23T04:51:14;15.80;91.80
32728;DHT22;55292;51.844;19.246;2023-04-23T04:56:17;16.30;89.70
32728;DHT22;55292;51.844;19.246;2023-04-23T05:01:21;16.90;87.10
32728;DHT22;55292;51.844;19.246;2023-04-23T05:06:26;17.70;84.00
32728;DHT22;55292;51.844;19.246;2023-04-23T05:11:30;18.00;80.00
32728;DHT22;55292;51.844;19.246;2023-04-23T05:16:33;18.40;78.20
32728;DHT22;55292;51.844;19.246;2023-04-23T05:21:36;18.50;76.20
32728;DHT22;55292;51.844;19.246;2023-04-23T05:26:39;18.60;73.50
32728;DHT22;55292;51.844;19.246;2023-04-23T05:31:42;18.50;74.00
32728;DHT22;55292;51.844;19.246;2023-04-23T05:36:45;18.60;74.70
32728;DHT22;55292;51.844;19.246;2023-04-23T05:41:48;17.20;76.80
32728;DHT22;55292;51.844;19.246;2023-04-23T05:46:50;15.40;83.00
32728;DHT22;55292;51.844;19.246;2023-04-23T05:51:53;14.70;86.90
32728;DHT22;55292;51.844;19.246;2023-04-23T05:56:57;14.20;91.10
32728;DHT22;55292;51.844;19.246;2023-04-23T06:02:01;14.00;92.60
32728;DHT22;55292;51.844;19.246;2023-04-23T06:07:05;14.20;94.10
32728;DHT22;55292;51.844;19.246;2023-04-23T06:12:09;14.50;94.50
32728;DHT22;55292;51.844;19.246;2023-04-23T06:17:12;14.50;93.90
32728;DHT22;55292;51.844;19.246;2023-04-23T06:22:15;16.40;94.10
32728;DHT22;55292;51.844;19.246;2023-04-23T06:27:17;14.90;94.00
32728;DHT22;55292;51.844;19.246;2023-04-23T06:32:24;15.10;92.80
32728;DHT22;55292;51.844;19.246;2023-04-23T06:37:26;15.40;93.90
32728;DHT22;55292;51.844;19.246;2023-04-23T06:42:31;15.50;93.40
32728;DHT22;55292;51.844;19.246;2023-04-23T06:47:51;15.70;93.80
32728;DHT22;55292;51.844;19.246;2023-04-23T06:52:53;16.00;93.90
32728;DHT22;55292;51.844;19.246;2023-04-23T06:57:57;16.10;93.00
32728;DHT22;55292;51.844;19.246;2023-04-23T07:03:00;16.40;93.10
32728;DHT22;55292;51.844;19.246;2023-04-23T07:08:03;16.60;93.20
32728;DHT22;55292;51.844;19.246;2023-04-23T07:13:06;16.90;93.50
32728;DHT22;55292;51.844;19.246;2023-04-23T07:18:08;17.00;92.10
32728;DHT22;55292;51.844;19.246;2023-04-23T07:23:12;17.20;93.50
32728;DHT22;55292;51.844;19.246;2023-04-23T07:28:14;17.30;93.10
32728;DHT22;55292;51.844;19.246;2023-04-23T07:33:19;17.30;92.60
32728;DHT22;55292;51.844;19.246;2023-04-23T07:38:26;17.60;91.90
32728;DHT22;55292;51.844;19.246;2023-04-23T07:43:29;17.60;93.40
32728;DHT22;55292;51.844;19.246;2023-04-23T07:48:32;17.80;91.70
32728;DHT22;55292;51.844;19.246;2023-04-23T07:53:36;18.00;93.50
32728;DHT22;55292;51.844;19.246;2023-04-23T07:58:39;18.20;92.10
32728;DHT22;55292;51.844;19.246;2023-04-23T08:03:42;18.50;92.40
32728;DHT22;55292;51.844;19.246;2023-04-23T08:08:45;18.80;91.80
32728;DHT22;55292;51.844;19.246;2023-04-23T08:13:48;19.00;90.40
32728;DHT22;55292;51.844;19.246;2023-04-23T08:18:50;19.20;91.00
32728;DHT22;55292;51.844;19.246;2023-04-23T08:24:07;19.50;88.70
32728;DHT22;55292;51.844;19.246;2023-04-23T08:29:10;19.60;88.90
32728;DHT22;55292;51.844;19.246;2023-04-23T08:34:13;19.70;86.60
32728;DHT22;55292;51.844;19.246;2023-04-23T08:39:16;19.90;85.20
32728;DHT22;55292;51.844;19.246;2023-04-23T08:44:22;20.10;85.20
32728;DHT22;55292;51.844;19.246;2023-04-23T08:49:28;20.30;86.90
32728;DHT22;55292;51.844;19.246;2023-04-23T08:54:36;20.30;79.80
32728;DHT22;55292;51.844;19.246;2023-04-23T08:59:44;20.40;81.90
32728;DHT22;55292;51.844;19.246;2023-04-23T09:04:47;20.40;79.10
32728;DHT22;55292;51.844;19.246;2023-04-23T09:09:53;20.60;78.50
32728;DHT22;55292;51.844;19.246;2023-04-23T09:14:56;20.60;78.00
32728;DHT22;55292;51.844;19.246;2023-04-23T09:19:59;20.60;72.80
32728;DHT22;55292;51.844;19.246;2023-04-23T09:25:02;20.60;73.50
32728;DHT22;55292;51.844;19.246;2023-04-23T09:30:15;20.70;71.80
32728;DHT22;55292;51.844;19.246;2023-04-23T09:35:18;20.80;74.40
32728;DHT22;55292;51.844;19.246;2023-04-23T09:40:23;21.10;72.90
32728;DHT22;55292;51.844;19.246;2023-04-23T09:45:27;21.10;69.10
32728;DHT22;55292;51.844;19.246;2023-04-23T09:50:32;20.80;67.90
32728;DHT22;55292;51.844;19.246;2023-04-23T09:55:37;20.90;67.60
32728;DHT22;55292;51.844;19.246;2023-04-23T10:00:41;21.00;67.40
32728;DHT22;55292;51.844;19.246;2023-04-23T10:05:44;21.10;66.10
32728;DHT22;55292;51.844;19.246;2023-04-23T10:11:03;21.00;64.20
32728;DHT22;55292;51.844;19.246;2023-04-23T10:16:21;21.10;65.60
32728;DHT22;55292;51.844;19.246;2023-04-23T10:21:37;21.20;65.10
32728;DHT22;55292;51.844;19.246;2023-04-23T10:27:00;21.10;62.90
32728;DHT22;55292;51.844;19.246;2023-04-23T10:32:05;21.20;64.20
32728;DHT22;55292;51.844;19.246;2023-04-23T10:37:09;21.10;64.20
32728;DHT22;55292;51.844;19.246;2023-04-23T10:42:13;21.40;64.60
32728;DHT22;55292;51.844;19.246;2023-04-23T10:47:17;21.60;65.80
32728;DHT22;55292;51.844;19.246;2023-04-23T10:52:31;21.60;66.30
32728;DHT22;55292;51.844;19.246;2023-04-23T10:57:54;21.60;67.00
32728;DHT22;55292;51.844;19.246;2023-04-23T11:03:02;21.70;67.60
32728;DHT22;55292;51.844;19.246;2023-04-23T11:08:06;21.70;66.50
32728;DHT22;55292;51.844;19.246;2023-04-23T11:13:25;21.40;67.90
32728;DHT22;55292;51.844;19.246;2023-04-23T11:19:02;21.60;67.60
32728;DHT22;55292;51.844;19.246;2023-04-23T11:24:06;22.10;65.80
32728;DHT22;55292;51.844;19.246;2023-04-23T11:29:11;22.20;65.50
32728;DHT22;55292;51.844;19.246;2023-04-23T11:34:17;22.40;63.90
32728;DHT22;55292;51.844;19.246;2023-04-23T11:39:21;22.60;63.60
32728;DHT22;55292;51.844;19.246;2023-04-23T11:44:26;22.50;64.70
32728;DHT22;55292;51.844;19.246;2023-04-23T11:49:29;22.40;66.20
32728;DHT22;55292;51.844;19.246;2023-04-23T11:54:32;22.30;63.80
32728;DHT22;55292;51.844;19.246;2023-04-23T11:59:36;22.40;62.50
32728;DHT22;55292;51.844;19.246;2023-04-23T12:04:39;22.30;62.20
32728;DHT22;55292;51.844;19.246;2023-04-23T12:09:44;22.20;61.90
32728;DHT22;55292;51.844;19.246;2023-04-23T12:14:50;22.20;65.80
32728;DHT22;55292;51.844;19.246;2023-04-23T12:19:53;22.40;64.70
32728;DHT22;55292;51.844;19.246;2023-04-23T12:24:55;22.50;64.10
32728;DHT22;55292;51.844;19.246;2023-04-23T12:29:59;22.50;61.40
32728;DHT22;55292;51.844;19.246;2023-04-23T12:35:03;22.50;61.80
32728;DHT22;55292;51.844;19.246;2023-04-23T12:40:11;22.60;64.50
32728;DHT22;55292;51.844;19.246;2023-04-23T12:45:14;22.50;63.80
32728;DHT22;55292;51.844;19.246;2023-04-23T12:50:17;22.50;61.80
32728;DHT22;55292;51.844;19.246;2023-04-23T12:55:22;22.80;62.10
32728;DHT22;55292;51.844;19.246;2023-04-23T13:00:25;22.40;61.80
32728;DHT22;55292;51.844;19.246;2023-04-23T13:05:28;22.30;65.20
32728;DHT22;55292;51.844;19.246;2023-04-23T13:10:31;22.50;59.80
32728;DHT22;55292;51.844;19.246;2023-04-23T13:15:34;22.50;61.10
32728;DHT22;55292;51.844;19.246;2023-04-23T13:20:37;22.30;62.40
32728;DHT22;55292;51.844;19.246;2023-04-23T13:25:41;22.80;62.80
32728;DHT22;55292;51.844;19.246;2023-04-23T13:30:44;23.10;62.00
32728;DHT22;55292;51.844;19.246;2023-04-23T13:35:47;22.80;60.20
32728;DHT22;55292;51.844;19.246;2023-04-23T13:40:50;22.60;60.70
32728;DHT22;55292;51.844;19.246;2023-04-23T13:45:53;22.50;61.40
32728;DHT22;55292;51.844;19.246;2023-04-23T13:50:59;22.20;61.80
32728;DHT22;55292;51.844;19.246;2023-04-23T13:56:03;22.20;61.60
32728;DHT22;55292;51.844;19.246;2023-04-23T14:01:05;21.90;62.90
32728;DHT22;55292;51.844;19.246;2023-04-23T14:06:08;22.00;60.40
32728;DHT22;55292;51.844;19.246;2023-04-23T14:11:11;22.00;60.50
32728;DHT22;55292;51.844;19.246;2023-04-23T14:16:13;22.30;60.50
32728;DHT22;55292;51.844;19.246;2023-04-23T14:21:17;22.20;60.80
32728;DHT22;55292;51.844;19.246;2023-04-23T14:26:40;22.40;60.70
32728;DHT22;55292;51.844;19.246;2023-04-23T14:31:51;22.00;63.10
32728;DHT22;55292;51.844;19.246;2023-04-23T14:36:54;22.50;62.10
32728;DHT22;55292;51.844;19.246;2023-04-23T14:41:57;22.30;57.80
32728;DHT22;55292;51.844;19.246;2023-04-23T14:47:00;22.10;61.60
32728;DHT22;55292;51.844;19.246;2023-04-23T14:52:04;22.20;61.30
32728;DHT22;55292;51.844;19.246;2023-04-23T14:57:06;22.40;62.50
32728;DHT22;55292;51.844;19.246;2023-04-23T15:02:09;22.60;63.10
32728;DHT22;55292;51.844;19.246;2023-04-23T15:07:15;22.30;61.60
32728;DHT22;55292;51.844;19.246;2023-04-23T15:12:35;21.90;63.20
32728;DHT22;55292;51.844;19.246;2023-04-23T15:17:39;21.70;63.50
32728;DHT22;55292;51.844;19.246;2023-04-23T15:22:43;22.00;63.00
32728;DHT22;55292;51.844;19.246;2023-04-23T15:27:46;22.10;63.90
32728;DHT22;55292;51.844;19.246;2023-04-23T15:32:54;21.50;65.30
32728;DHT22;55292;51.844;19.246;2023-04-23T15:37:57;20.70;67.80
32728;DHT22;55292;51.844;19.246;2023-04-23T15:43:21;20.20;69.50
32728;DHT22;55292;51.844;19.246;2023-04-23T15:48:59;19.80;70.70
32728;DHT22;55292;51.844;19.246;2023-04-23T15:54:02;20.30;71.20
32728;DHT22;55292;51.844;19.246;2023-04-23T15:59:07;20.30;67.80
32728;DHT22;55292;51.844;19.246;2023-04-23T16:04:12;19.90;72.30
32728;DHT22;55292;51.844;19.246;2023-04-23T16:09:15;19.60;71.60
32728;DHT22;55292;51.844;19.246;2023-04-23T16:14:21;19.20;72.90
32728;DHT22;55292;51.844;19.246;2023-04-23T16:19:23;19.00;74.00
32728;DHT22;55292;51.844;19.246;2023-04-23T16:24:26;18.70;77.20
32728;DHT22;55292;51.844;19.246;2023-04-23T16:29:31;18.50;78.50
32728;DHT22;55292;51.844;19.246;2023-04-23T16:34:34;18.30;83.10
32728;DHT22;55292;51.844;19.246;2023-04-23T16:39:37;18.20;86.90
32728;DHT22;55292;51.844;19.246;2023-04-23T16:44:41;18.40;80.20
32728;DHT22;55292;51.844;19.246;2023-04-23T16:49:44;18.50;81.80
32728;DHT22;55292;51.844;19.246;2023-04-23T16:54:47;18.30;87.20
32728;DHT22;55292;51.844;19.246;2023-04-23T16:59:51;18.00;90.10
32728;DHT22;55292;51.844;19.246;2023-04-23T17:04:56;17.70;95.20
32728;DHT22;55292;51.844;19.246;2023-04-23T17:15:02;16.30;99.90
32728;DHT22;55292;51.844;19.246;2023-04-23T17:20:05;16.10;99.90
32728;DHT22;55292;51.844;19.246;2023-04-23T17:25:12;15.80;99.90
32728;DHT22;55292;51.844;19.246;2023-04-23T17:30:15;15.30;99.90
32728;DHT22;55292;51.844;19.246;2023-04-23T17:35:17;15.00;99.90
32728;DHT22;55292;51.844;19.246;2023-04-23T17:40:20;14.70;99.90
32728;DHT22;55292;51.844;19.246;2023-04-23T17:45:23;14.40;99.90
32728;DHT22;55292;51.844;19.246;2023-04-23T17:50:27;14.10;99.90
32728;DHT22;55292;51.844;19.246;2023-04-23T17:55:30;13.80;99.90
32728;DHT22;55292;51.844;19.246;2023-04-23T18:00:40;13.60;99.90
32728;DHT22;55292;51.844;19.246;2023-04-23T18:05:46;13.40;99.90
32728;DHT22;55292;51.844;19.246;2023-04-23T18:10:49;13.10;99.90
32728;DHT22;55292;51.844;19.246;2023-04-23T18:15:52;12.90;99.90
32728;DHT22;55292;51.844;19.246;2023-04-23T18:20:55;12.50;99.90
32728;DHT22;55292;51.844;19.246;2023-04-23T18:25:58;12.50;99.90
32728;DHT22;55292;51.844;19.246;2023-04-23T18:31:03;12.10;99.90
32728;DHT22;55292;51.844;19.246;2023-04-23T18:36:31;11.70;99.90
32728;DHT22;55292;51.844;19.246;2023-04-23T18:41:34;11.50;99.90
32728;DHT22;55292;51.844;19.246;2023-04-23T18:46:38;11.30;99.90
32728;DHT22;55292;51.844;19.246;2023-04-23T18:51:46;11.30;99.90
32728;DHT22;55292;51.844;19.246;2023-04-23T18:56:51;11.10;99.90
32728;DHT22;55292;51.844;19.246;2023-04-23T19:01:57;11.00;99.90
32728;DHT22;55292;51.844;19.246;2023-04-23T19:07:00;10.90;99.90
32728;DHT22;55292;51.844;19.246;2023-04-23T19:12:04;10.90;99.90
32728;DHT22;55292;51.844;19.246;2023-04-23T19:17:06;10.90;99.90
32728;DHT22;55292;51.844;19.246;2023-04-23T19:22:11;10.80;99.90
32728;DHT22;55292;51.844;19.246;2023-04-23T19:27:14;10.60;99.90
32728;DHT22;55292;51.844;19.246;2023-04-23T19:32:18;10.40;99.90
32728;DHT22;55292;51.844;19.246;2023-04-23T19:37:21;10.20;99.90
32728;DHT22;55292;51.844;19.246;2023-04-23T19:42:25;10.00;99.90
32728;DHT22;55292;51.844;19.246;2023-04-23T19:47:30;10.10;99.90
32728;DHT22;55292;51.844;19.246;2023-04-23T19:52:35;10.20;99.90
32728;DHT22;55292;51.844;19.246;2023-04-23T19:57:38;10.20;99.90
32728;DHT22;55292;51.844;19.246;2023-04-23T20:02:43;10.20;99.90
32728;DHT22;55292;51.844;19.246;2023-04-23T20:07:47;10.20;99.90
32728;DHT22;55292;51.844;19.246;2023-04-23T20:13:01;10.30;99.90
32728;DHT22;55292;51.844;19.246;2023-04-23T20:18:04;10.10;99.90
32728;DHT22;55292;51.844;19.246;2023-04-23T20:23:11;9.90;99.90
32728;DHT22;55292;51.844;19.246;2023-04-23T20:28:16;9.80;99.90
32728;DHT22;55292;51.844;19.246;2023-04-23T20:33:19;9.50;99.90
32728;DHT22;55292;51.844;19.246;2023-04-23T20:38:25;9.80;99.90
32728;DHT22;55292;51.844;19.246;2023-04-23T20:43:33;9.80;99.90
32728;DHT22;55292;51.844;19.246;2023-04-23T20:48:36;9.80;99.90
32728;DHT22;55292;51.844;19.246;2023-04-23T20:53:41;9.80;99.90
32728;DHT22;55292;51.844;19.246;2023-04-23T20:58:44;9.60;99.90
32728;DHT22;55292;51.844;19.246;2023-04-23T21:03:47;9.50;99.90
32728;DHT22;55292;51.844;19.246;2023-04-23T21:08:51;9.50;99.90
32728;DHT22;55292;51.844;19.246;2023-04-23T21:13:53;9.60;99.90
32728;DHT22;55292;51.844;19.246;2023-04-23T21:19:29;9.70;99.90
32728;DHT22;55292;51.844;19.246;2023-04-23T21:24:36;9.70;99.90
32728;DHT22;55292;51.844;19.246;2023-04-23T21:29:38;9.70;99.90
32728;DHT22;55292;51.844;19.246;2023-04-23T21:34:42;9.60;99.90
32728;DHT22;55292;51.844;19.246;2023-04-23T21:39:45;9.50;99.90
32728;DHT22;55292;51.844;19.246;2023-04-23T21:44:48;9.30;99.90
32728;DHT22;55292;51.844;19.246;2023-04-23T21:49:54;9.20;99.90
32728;DHT22;55292;51.844;19.246;2023-04-23T21:54:58;9.20;99.90
32728;DHT22;55292;51.844;19.246;2023-04-23T22:00:01;9.50;99.90
32728;DHT22;55292;51.844;19.246;2023-04-23T22:05:17;9.60;99.90
32728;DHT22;55292;51.844;19.246;2023-04-23T22:10:23;9.60;99.90
32728;DHT22;55292;51.844;19.246;2023-04-23T22:15:26;9.70;99.90
32728;DHT22;55292;51.844;19.246;2023-04-23T22:20:30;9.70;99.90
32728;DHT22;55292;51.844;19.246;2023-04-23T22:25:33;9.70;99.90
32728;DHT22;55292;51.844;19.246;2023-04-23T22:30:35;9.80;99.90
32728;DHT22;55292;51.844;19.246;2023-04-23T22:35:38;9.90;99.90
32728;DHT22;55292;51.844;19.246;2023-04-23T22:40:41;9.90;99.90
32728;DHT22;55292;51.844;19.246;2023-04-23T22:45:43;9.80;99.90
32728;DHT22;55292;51.844;19.246;2023-04-23T22:50:46;9.70;99.90
32728;DHT22;55292;51.844;19.246;2023-04-23T22:55:52;9.70;99.90
32728;DHT22;55292;51.844;19.246;2023-04-23T23:00:54;9.60;99.90
32728;DHT22;55292;51.844;19.246;2023-04-23T23:05:57;9.70;99.90
32728;DHT22;55292;51.844;19.246;2023-04-23T23:11:00;9.70;99.90
32728;DHT22;55292;51.844;19.246;2023-04-23T23:16:02;9.70;99.90
32728;DHT22;55292;51.844;19.246;2023-04-23T23:21:07;9.70;99.90
32728;DHT22;55292;51.844;19.246;2023-04-23T23:26:09;9.70;99.90
32728;DHT22;55292;51.844;19.246;2023-04-23T23:31:12;9.60;99.90
32728;DHT22;55292;51.844;19.246;2023-04-23T23:36:15;9.20;99.90
32728;DHT22;55292;51.844;19.246;2023-04-23T23:41:24;9.10;99.90
32728;DHT22;55292;51.844;19.246;2023-04-23T23:46:27;9.00;99.90
32728;DHT22;55292;51.844;19.246;2023-04-23T23:51:30;9.10;99.90
32728;DHT22;55292;51.844;19.246;2023-04-23T23:56:32;9.10;99.90
